메인 페이지
METAR-TAF:

METAR-TAF

공항 :

부르사, 터키

위도: 40-15-19N, 경도: 029-33-45E, 고도: 233m

현재 날씨관측

예보는 41분 전, 14:50시(UTC)에 발표되었습니다.
9kt
온도 20°C
습도 64%
기압 1020 hPa
시정 10km 이상
고도 4000ft 상공 구름 조금

METAR: LTBR 211450Z 35009KT 9999 FEW040 20/13 Q1020 NOSIG RMK RWY07 36009KT 330V030

시각: 18:31 (15:31 UTC)

예보

예보는 4 시간 51분 전, 10:40시(UTC)에 발표되었습니다.
예보 대상 시간: 21일 12시부터 22일 12시까지 (UTC)
12kt
시정 10km 이상
고도 3500ft 상공 구름 조금
전환 중
21일 12시부터 21일 15시까지 (UTC)
12kt
시정 10km 이상
1500m 미만 상공 구름 및 적란운 없음
전환 중
21일 16시부터 21일 18시까지 (UTC)
여러 방향의 바람 2kt
확률 40%
22일 02시부터 22일 06시까지 (UTC)
시정: 4000m
박무

TAF: LTBR 211040Z 2112/2212 09012KT 9999 FEW035 BECMG 2112/2115 35012KT CAVOK BECMG 2116/2118 VRB02KT PROB40 2202/2206 4000 BR

4,000개 이상의 공항 관측 자료 및 예보 (METAR 및 TAF 보고).

지도상에서 검색 가능한 기상관측소가 노란 점과 빨간 점으로 표시되어 있습니다.

기상관측소 명을 보려면 표시 위로 마우스를 이동하세요.

날씨 관측과 예보를 보려면 클릭하세요.

지도 변경 : 확대하려면 엑스 표시가 있는 녹색 버튼, 축소하려면 빼기 표시가 있는 녹색 버튼, 다음 페이지의 지도를 보려면 녹색 화살표를 클릭하세요.


METAR-TAF: